sensor_id;sensor_type;location;lat;lon;timestamp;temperature;humidity
22416;DHT22;12204;50.600;4.608;2023-01-10T00:01:06;21.30;71.80
22416;DHT22;12204;50.600;4.608;2023-01-10T00:06:10;21.30;72.10
22416;DHT22;12204;50.600;4.608;2023-01-10T00:11:15;21.20;72.10
22416;DHT22;12204;50.600;4.608;2023-01-10T00:16:37;21.20;72.20
22416;DHT22;12204;50.600;4.608;2023-01-10T00:21:41;21.20;72.50
22416;DHT22;12204;50.600;4.608;2023-01-10T00:26:48;21.20;72.60
22416;DHT22;12204;50.600;4.608;2023-01-10T00:31:53;21.10;72.40
22416;DHT22;12204;50.600;4.608;2023-01-10T00:36:58;21.10;72.10
22416;DHT22;12204;50.600;4.608;2023-01-10T00:42:03;21.00;71.90
22416;DHT22;12204;50.600;4.608;2023-01-10T00:47:27;21.10;71.90
22416;DHT22;12204;50.600;4.608;2023-01-10T00:52:31;21.00;71.80
22416;DHT22;12204;50.600;4.608;2023-01-10T00:57:36;21.00;72.00
22416;DHT22;12204;50.600;4.608;2023-01-10T01:02:40;21.00;72.40
22416;DHT22;12204;50.600;4.608;2023-01-10T01:07:46;21.00;72.20
22416;DHT22;12204;50.600;4.608;2023-01-10T01:12:52;21.00;72.20
22416;DHT22;12204;50.600;4.608;2023-01-10T01:17:56;20.90;72.10
22416;DHT22;12204;50.600;4.608;2023-01-10T01:22:59;20.90;72.10
22416;DHT22;12204;50.600;4.608;2023-01-10T01:28:05;20.90;72.20
22416;DHT22;12204;50.600;4.608;2023-01-10T01:33:09;20.90;72.40
22416;DHT22;12204;50.600;4.608;2023-01-10T01:38:13;20.90;72.70
22416;DHT22;12204;50.600;4.608;2023-01-10T01:43:22;21.00;72.90
22416;DHT22;12204;50.600;4.608;2023-01-10T01:48:31;21.10;72.60
22416;DHT22;12204;50.600;4.608;2023-01-10T01:53:41;21.20;72.20
22416;DHT22;12204;50.600;4.608;2023-01-10T01:58:51;21.20;71.90
22416;DHT22;12204;50.600;4.608;2023-01-10T02:04:02;21.30;71.90
22416;DHT22;12204;50.600;4.608;2023-01-10T02:09:15;21.30;71.80
22416;DHT22;12204;50.600;4.608;2023-01-10T02:14:26;21.30;72.60
22416;DHT22;12204;50.600;4.608;2023-01-10T02:19:37;21.30;71.90
22416;DHT22;12204;50.600;4.608;2023-01-10T02:31:18;21.30;72.40
22416;DHT22;12204;50.600;4.608;2023-01-10T02:36:45;21.20;72.20
22416;DHT22;12204;50.600;4.608;2023-01-10T02:42:00;21.20;73.10
22416;DHT22;12204;50.600;4.608;2023-01-10T02:47:07;21.20;72.30
22416;DHT22;12204;50.600;4.608;2023-01-10T02:52:16;21.10;72.40
22416;DHT22;12204;50.600;4.608;2023-01-10T02:57:36;21.20;72.40
22416;DHT22;12204;50.600;4.608;2023-01-10T03:03:00;21.10;72.60
22416;DHT22;12204;50.600;4.608;2023-01-10T03:08:25;21.10;72.80
22416;DHT22;12204;50.600;4.608;2023-01-10T03:13:36;21.10;73.00
22416;DHT22;12204;50.600;4.608;2023-01-10T03:18:47;21.10;73.20
22416;DHT22;12204;50.600;4.608;2023-01-10T03:23:59;21.00;74.00
22416;DHT22;12204;50.600;4.608;2023-01-10T03:29:10;21.00;73.70
22416;DHT22;12204;50.600;4.608;2023-01-10T03:34:15;21.00;74.00
22416;DHT22;12204;50.600;4.608;2023-01-10T03:39:27;21.00;73.90
22416;DHT22;12204;50.600;4.608;2023-01-10T03:44:41;20.90;74.20
22416;DHT22;12204;50.600;4.608;2023-01-10T03:49:54;20.90;74.30
22416;DHT22;12204;50.600;4.608;2023-01-10T03:55:03;20.90;74.50
22416;DHT22;12204;50.600;4.608;2023-01-10T04:00:08;20.90;74.40
22416;DHT22;12204;50.600;4.608;2023-01-10T04:05:14;20.90;74.30
22416;DHT22;12204;50.600;4.608;2023-01-10T04:10:20;20.90;74.20
22416;DHT22;12204;50.600;4.608;2023-01-10T04:15:26;21.00;73.90
22416;DHT22;12204;50.600;4.608;2023-01-10T04:20:29;21.00;73.40
22416;DHT22;12204;50.600;4.608;2023-01-10T04:25:35;21.00;73.00
22416;DHT22;12204;50.600;4.608;2023-01-10T04:30:38;21.00;72.80
22416;DHT22;12204;50.600;4.608;2023-01-10T04:35:46;21.00;72.60
22416;DHT22;12204;50.600;4.608;2023-01-10T04:40:53;21.10;72.60
22416;DHT22;12204;50.600;4.608;2023-01-10T04:45:58;21.00;72.30
22416;DHT22;12204;50.600;4.608;2023-01-10T04:51:03;21.00;72.50
22416;DHT22;12204;50.600;4.608;2023-01-10T04:56:15;21.00;72.60
22416;DHT22;12204;50.600;4.608;2023-01-10T05:01:22;21.10;72.70
22416;DHT22;12204;50.600;4.608;2023-01-10T05:06:27;21.00;72.70
22416;DHT22;12204;50.600;4.608;2023-01-10T05:11:32;21.00;72.70
22416;DHT22;12204;50.600;4.608;2023-01-10T05:16:36;21.00;72.70
22416;DHT22;12204;50.600;4.608;2023-01-10T05:21:40;20.90;72.70
22416;DHT22;12204;50.600;4.608;2023-01-10T05:26:45;20.90;73.00
22416;DHT22;12204;50.600;4.608;2023-01-10T05:31:50;20.90;73.20
22416;DHT22;12204;50.600;4.608;2023-01-10T05:36:55;20.90;73.50
22416;DHT22;12204;50.600;4.608;2023-01-10T05:42:00;20.80;73.60
22416;DHT22;12204;50.600;4.608;2023-01-10T05:47:05;20.80;73.80
22416;DHT22;12204;50.600;4.608;2023-01-10T05:52:09;20.80;73.80
22416;DHT22;12204;50.600;4.608;2023-01-10T05:57:14;20.80;74.00
22416;DHT22;12204;50.600;4.608;2023-01-10T06:02:18;20.70;74.30
22416;DHT22;12204;50.600;4.608;2023-01-10T06:07:22;20.70;74.70
22416;DHT22;12204;50.600;4.608;2023-01-10T06:12:27;20.70;74.90
22416;DHT22;12204;50.600;4.608;2023-01-10T06:17:31;20.70;74.60
22416;DHT22;12204;50.600;4.608;2023-01-10T06:22:35;20.70;74.80
22416;DHT22;12204;50.600;4.608;2023-01-10T06:27:41;20.60;74.90
22416;DHT22;12204;50.600;4.608;2023-01-10T06:32:45;20.60;74.50
22416;DHT22;12204;50.600;4.608;2023-01-10T06:37:49;20.70;73.10
22416;DHT22;12204;50.600;4.608;2023-01-10T06:42:54;20.70;73.00
22416;DHT22;12204;50.600;4.608;2023-01-10T06:47:58;20.70;72.30
22416;DHT22;12204;50.600;4.608;2023-01-10T06:53:03;20.70;72.00
22416;DHT22;12204;50.600;4.608;2023-01-10T06:58:08;20.80;72.10
22416;DHT22;12204;50.600;4.608;2023-01-10T07:03:12;20.80;72.10
22416;DHT22;12204;50.600;4.608;2023-01-10T07:08:16;20.80;72.20
22416;DHT22;12204;50.600;4.608;2023-01-10T07:13:21;20.90;72.20
22416;DHT22;12204;50.600;4.608;2023-01-10T07:18:25;20.90;72.40
22416;DHT22;12204;50.600;4.608;2023-01-10T07:23:28;20.90;72.20
22416;DHT22;12204;50.600;4.608;2023-01-10T07:28:34;20.80;72.20
22416;DHT22;12204;50.600;4.608;2023-01-10T07:33:38;20.80;72.20
22416;DHT22;12204;50.600;4.608;2023-01-10T07:38:41;20.80;72.50
22416;DHT22;12204;50.600;4.608;2023-01-10T07:43:46;20.80;72.30
22416;DHT22;12204;50.600;4.608;2023-01-10T07:48:50;20.80;72.40
22416;DHT22;12204;50.600;4.608;2023-01-10T07:53:54;20.80;72.50
22416;DHT22;12204;50.600;4.608;2023-01-10T07:58:59;20.80;72.70
22416;DHT22;12204;50.600;4.608;2023-01-10T08:04:03;20.80;73.40
22416;DHT22;12204;50.600;4.608;2023-01-10T08:09:07;20.70;72.50
22416;DHT22;12204;50.600;4.608;2023-01-10T08:14:12;20.60;71.60
22416;DHT22;12204;50.600;4.608;2023-01-10T08:19:16;20.50;70.20
22416;DHT22;12204;50.600;4.608;2023-01-10T08:24:20;20.30;68.90
22416;DHT22;12204;50.600;4.608;2023-01-10T08:29:25;20.20;68.10
22416;DHT22;12204;50.600;4.608;2023-01-10T08:34:29;20.10;67.40
22416;DHT22;12204;50.600;4.608;2023-01-10T08:39:33;20.00;66.60
22416;DHT22;12204;50.600;4.608;2023-01-10T08:44:38;19.90;66.00
22416;DHT22;12204;50.600;4.608;2023-01-10T08:49:42;19.90;66.00
22416;DHT22;12204;50.600;4.608;2023-01-10T08:54:47;20.00;65.20
22416;DHT22;12204;50.600;4.608;2023-01-10T08:59:53;19.80;64.60
22416;DHT22;12204;50.600;4.608;2023-01-10T09:04:57;19.70;64.00
22416;DHT22;12204;50.600;4.608;2023-01-10T09:10:00;19.70;63.70
22416;DHT22;12204;50.600;4.608;2023-01-10T09:15:07;19.60;63.50
22416;DHT22;12204;50.600;4.608;2023-01-10T09:20:12;19.60;62.90
22416;DHT22;12204;50.600;4.608;2023-01-10T09:25:16;19.50;62.60
22416;DHT22;12204;50.600;4.608;2023-01-10T09:30:21;19.50;62.30
22416;DHT22;12204;50.600;4.608;2023-01-10T09:35:27;19.40;61.90
22416;DHT22;12204;50.600;4.608;2023-01-10T09:40:45;19.40;62.20
22416;DHT22;12204;50.600;4.608;2023-01-10T09:46:25;19.40;62.30
22416;DHT22;12204;50.600;4.608;2023-01-10T09:51:41;19.30;62.30
22416;DHT22;12204;50.600;4.608;2023-01-10T09:56:48;19.30;62.10
22416;DHT22;12204;50.600;4.608;2023-01-10T10:01:58;19.30;62.20
22416;DHT22;12204;50.600;4.608;2023-01-10T10:07:10;19.30;62.10
22416;DHT22;12204;50.600;4.608;2023-01-10T10:12:26;19.20;62.00
22416;DHT22;12204;50.600;4.608;2023-01-10T10:17:42;19.20;61.90
22416;DHT22;12204;50.600;4.608;2023-01-10T10:22:58;19.10;61.70
22416;DHT22;12204;50.600;4.608;2023-01-10T10:28:32;19.10;61.70
22416;DHT22;12204;50.600;4.608;2023-01-10T10:34:04;19.10;61.70
22416;DHT22;12204;50.600;4.608;2023-01-10T10:39:19;19.10;61.40
22416;DHT22;12204;50.600;4.608;2023-01-10T10:44:37;19.00;61.50
22416;DHT22;12204;50.600;4.608;2023-01-10T10:49:51;19.00;61.30
22416;DHT22;12204;50.600;4.608;2023-01-10T10:55:01;19.10;62.60
22416;DHT22;12204;50.600;4.608;2023-01-10T11:00:13;19.10;63.00
22416;DHT22;12204;50.600;4.608;2023-01-10T11:05:38;19.20;63.60
22416;DHT22;12204;50.600;4.608;2023-01-10T11:10:48;19.20;64.30
22416;DHT22;12204;50.600;4.608;2023-01-10T11:15:56;19.20;64.60
22416;DHT22;12204;50.600;4.608;2023-01-10T11:21:05;19.30;65.10
22416;DHT22;12204;50.600;4.608;2023-01-10T11:26:23;19.30;65.60
22416;DHT22;12204;50.600;4.608;2023-01-10T11:31:29;19.30;65.80
22416;DHT22;12204;50.600;4.608;2023-01-10T11:36:51;19.30;66.00
22416;DHT22;12204;50.600;4.608;2023-01-10T11:42:24;19.30;66.30
22416;DHT22;12204;50.600;4.608;2023-01-10T11:47:32;19.30;66.60
22416;DHT22;12204;50.600;4.608;2023-01-10T11:52:49;19.30;67.00
22416;DHT22;12204;50.600;4.608;2023-01-10T11:58:02;19.30;67.20
22416;DHT22;12204;50.600;4.608;2023-01-10T12:03:20;19.30;67.30
22416;DHT22;12204;50.600;4.608;2023-01-10T12:08:32;19.30;67.60
22416;DHT22;12204;50.600;4.608;2023-01-10T12:13:46;19.30;67.70
22416;DHT22;12204;50.600;4.608;2023-01-10T12:18:54;19.30;68.00
22416;DHT22;12204;50.600;4.608;2023-01-10T12:24:05;19.30;68.30
22416;DHT22;12204;50.600;4.608;2023-01-10T12:29:18;19.30;68.40
22416;DHT22;12204;50.600;4.608;2023-01-10T12:34:39;19.30;68.60
22416;DHT22;12204;50.600;4.608;2023-01-10T12:39:50;19.30;69.00
22416;DHT22;12204;50.600;4.608;2023-01-10T12:45:01;19.30;69.10
22416;DHT22;12204;50.600;4.608;2023-01-10T12:50:11;19.30;69.20
22416;DHT22;12204;50.600;4.608;2023-01-10T12:55:23;19.30;69.30
22416;DHT22;12204;50.600;4.608;2023-01-10T13:00:31;19.30;69.40
22416;DHT22;12204;50.600;4.608;2023-01-10T13:05:49;19.30;69.50
22416;DHT22;12204;50.600;4.608;2023-01-10T13:10:57;19.30;69.60
22416;DHT22;12204;50.600;4.608;2023-01-10T13:16:23;19.30;69.70
22416;DHT22;12204;50.600;4.608;2023-01-10T13:21:34;19.30;69.70
22416;DHT22;12204;50.600;4.608;2023-01-10T13:26:49;19.30;69.80
22416;DHT22;12204;50.600;4.608;2023-01-10T13:31:56;19.30;70.00
22416;DHT22;12204;50.600;4.608;2023-01-10T13:37:09;19.30;70.00
22416;DHT22;12204;50.600;4.608;2023-01-10T13:42:28;19.30;70.20
22416;DHT22;12204;50.600;4.608;2023-01-10T13:48:03;19.30;70.20
22416;DHT22;12204;50.600;4.608;2023-01-10T13:53:52;19.30;70.30
22416;DHT22;12204;50.600;4.608;2023-01-10T13:59:02;19.20;70.30
22416;DHT22;12204;50.600;4.608;2023-01-10T14:04:30;19.30;70.60
22416;DHT22;12204;50.600;4.608;2023-01-10T14:09:40;19.20;70.50
22416;DHT22;12204;50.600;4.608;2023-01-10T14:14:55;19.20;70.50
22416;DHT22;12204;50.600;4.608;2023-01-10T14:20:13;19.20;70.60
22416;DHT22;12204;50.600;4.608;2023-01-10T14:25:22;19.20;70.70
22416;DHT22;12204;50.600;4.608;2023-01-10T14:30:32;19.20;70.80
22416;DHT22;12204;50.600;4.608;2023-01-10T14:35:41;19.20;70.80
22416;DHT22;12204;50.600;4.608;2023-01-10T14:40:49;19.20;70.90
22416;DHT22;12204;50.600;4.608;2023-01-10T14:45:59;19.20;71.20
22416;DHT22;12204;50.600;4.608;2023-01-10T14:51:16;19.20;71.00
22416;DHT22;12204;50.600;4.608;2023-01-10T14:56:25;19.20;71.10
22416;DHT22;12204;50.600;4.608;2023-01-10T15:01:32;19.20;71.20
22416;DHT22;12204;50.600;4.608;2023-01-10T15:06:53;19.20;71.20
22416;DHT22;12204;50.600;4.608;2023-01-10T15:12:02;19.20;71.20
22416;DHT22;12204;50.600;4.608;2023-01-10T15:17:15;19.20;71.40
22416;DHT22;12204;50.600;4.608;2023-01-10T15:22:27;19.10;71.40
22416;DHT22;12204;50.600;4.608;2023-01-10T15:27:33;19.10;71.50
22416;DHT22;12204;50.600;4.608;2023-01-10T15:32:39;19.10;71.60
22416;DHT22;12204;50.600;4.608;2023-01-10T15:37:47;19.20;71.60
22416;DHT22;12204;50.600;4.608;2023-01-10T15:43:09;19.10;71.70
22416;DHT22;12204;50.600;4.608;2023-01-10T15:48:28;19.10;71.70
22416;DHT22;12204;50.600;4.608;2023-01-10T15:53:52;19.10;71.80
22416;DHT22;12204;50.600;4.608;2023-01-10T15:59:18;19.10;71.80
22416;DHT22;12204;50.600;4.608;2023-01-10T16:04:26;19.10;71.90
22416;DHT22;12204;50.600;4.608;2023-01-10T16:09:30;19.20;72.70
22416;DHT22;12204;50.600;4.608;2023-01-10T16:14:35;19.10;72.00
22416;DHT22;12204;50.600;4.608;2023-01-10T16:19:40;19.10;72.00
22416;DHT22;12204;50.600;4.608;2023-01-10T16:24:44;19.20;72.20
22416;DHT22;12204;50.600;4.608;2023-01-10T16:29:49;19.20;71.10
22416;DHT22;12204;50.600;4.608;2023-01-10T16:34:55;19.20;70.90
22416;DHT22;12204;50.600;4.608;2023-01-10T16:40:14;19.20;70.40
22416;DHT22;12204;50.600;4.608;2023-01-10T16:45:21;19.10;70.00
22416;DHT22;12204;50.600;4.608;2023-01-10T16:50:26;19.00;69.50
22416;DHT22;12204;50.600;4.608;2023-01-10T16:55:37;19.00;68.90
22416;DHT22;12204;50.600;4.608;2023-01-10T17:00:47;18.90;68.80
22416;DHT22;12204;50.600;4.608;2023-01-10T17:05:54;19.00;68.40
22416;DHT22;12204;50.600;4.608;2023-01-10T17:10:59;18.90;68.30
22416;DHT22;12204;50.600;4.608;2023-01-10T17:16:08;18.90;67.90
22416;DHT22;12204;50.600;4.608;2023-01-10T17:21:16;18.90;68.60
22416;DHT22;12204;50.600;4.608;2023-01-10T17:26:21;19.00;68.50
22416;DHT22;12204;50.600;4.608;2023-01-10T17:31:25;19.00;68.80
22416;DHT22;12204;50.600;4.608;2023-01-10T17:36:30;19.10;69.60
22416;DHT22;12204;50.600;4.608;2023-01-10T17:41:39;19.10;69.70
22416;DHT22;12204;50.600;4.608;2023-01-10T17:46:43;19.10;70.20
22416;DHT22;12204;50.600;4.608;2023-01-10T17:51:48;19.10;70.60
22416;DHT22;12204;50.600;4.608;2023-01-10T17:56:53;19.10;70.60
22416;DHT22;12204;50.600;4.608;2023-01-10T18:01:57;19.10;70.60
22416;DHT22;12204;50.600;4.608;2023-01-10T18:07:03;19.10;70.80
22416;DHT22;12204;50.600;4.608;2023-01-10T18:12:07;19.10;70.90
22416;DHT22;12204;50.600;4.608;2023-01-10T18:17:16;19.20;71.40
22416;DHT22;12204;50.600;4.608;2023-01-10T18:22:21;19.80;70.10
22416;DHT22;12204;50.600;4.608;2023-01-10T18:27:43;20.40;68.60
22416;DHT22;12204;50.600;4.608;2023-01-10T18:32:52;20.90;67.30
22416;DHT22;12204;50.600;4.608;2023-01-10T18:37:58;21.30;66.30
22416;DHT22;12204;50.600;4.608;2023-01-10T18:43:01;21.50;65.70
22416;DHT22;12204;50.600;4.608;2023-01-10T18:48:05;21.60;65.60
22416;DHT22;12204;50.600;4.608;2023-01-10T18:53:10;21.70;65.90
22416;DHT22;12204;50.600;4.608;2023-01-10T18:58:14;21.60;66.10
22416;DHT22;12204;50.600;4.608;2023-01-10T19:03:18;21.50;66.50
22416;DHT22;12204;50.600;4.608;2023-01-10T19:08:25;21.50;66.80
22416;DHT22;12204;50.600;4.608;2023-01-10T19:13:29;21.40;67.00
22416;DHT22;12204;50.600;4.608;2023-01-10T19:18:33;21.30;67.20
22416;DHT22;12204;50.600;4.608;2023-01-10T19:23:38;21.30;67.50
22416;DHT22;12204;50.600;4.608;2023-01-10T19:28:42;21.20;68.80
22416;DHT22;12204;50.600;4.608;2023-01-10T19:33:47;21.10;69.80
22416;DHT22;12204;50.600;4.608;2023-01-10T19:38:57;21.10;69.20
22416;DHT22;12204;50.600;4.608;2023-01-10T19:44:03;21.00;69.30
22416;DHT22;12204;50.600;4.608;2023-01-10T19:49:13;21.00;69.30
22416;DHT22;12204;50.600;4.608;2023-01-10T19:54:22;20.90;69.40
22416;DHT22;12204;50.600;4.608;2023-01-10T19:59:26;20.90;69.60
22416;DHT22;12204;50.600;4.608;2023-01-10T20:04:32;20.80;69.70
22416;DHT22;12204;50.600;4.608;2023-01-10T20:09:37;20.80;69.80
22416;DHT22;12204;50.600;4.608;2023-01-10T20:14:41;20.80;70.00
22416;DHT22;12204;50.600;4.608;2023-01-10T20:19:45;20.70;70.10
22416;DHT22;12204;50.600;4.608;2023-01-10T20:24:51;20.70;70.30
22416;DHT22;12204;50.600;4.608;2023-01-10T20:29:55;20.60;70.30
22416;DHT22;12204;50.600;4.608;2023-01-10T20:34:58;20.60;70.40
22416;DHT22;12204;50.600;4.608;2023-01-10T20:40:05;20.60;70.60
22416;DHT22;12204;50.600;4.608;2023-01-10T20:45:10;20.50;70.70
22416;DHT22;12204;50.600;4.608;2023-01-10T20:50:14;20.50;70.80
22416;DHT22;12204;50.600;4.608;2023-01-10T20:55:20;20.50;70.90
22416;DHT22;12204;50.600;4.608;2023-01-10T21:00:24;20.60;70.70
22416;DHT22;12204;50.600;4.608;2023-01-10T21:05:28;20.80;70.20
22416;DHT22;12204;50.600;4.608;2023-01-10T21:10:33;21.00;69.60
22416;DHT22;12204;50.600;4.608;2023-01-10T21:15:38;21.20;68.90
22416;DHT22;12204;50.600;4.608;2023-01-10T21:20:45;21.40;68.60
22416;DHT22;12204;50.600;4.608;2023-01-10T21:25:51;21.40;68.60
22416;DHT22;12204;50.600;4.608;2023-01-10T21:30:55;21.40;68.70
22416;DHT22;12204;50.600;4.608;2023-01-10T21:35:59;21.40;68.80
22416;DHT22;12204;50.600;4.608;2023-01-10T21:41:06;21.40;68.90
22416;DHT22;12204;50.600;4.608;2023-01-10T21:46:13;21.40;69.10
22416;DHT22;12204;50.600;4.608;2023-01-10T21:51:17;21.30;69.50
22416;DHT22;12204;50.600;4.608;2023-01-10T21:56:22;21.20;69.90
22416;DHT22;12204;50.600;4.608;2023-01-10T22:01:26;21.20;69.90
22416;DHT22;12204;50.600;4.608;2023-01-10T22:06:30;21.20;70.20
22416;DHT22;12204;50.600;4.608;2023-01-10T22:11:35;21.10;70.20
22416;DHT22;12204;50.600;4.608;2023-01-10T22:16:39;21.10;70.30
22416;DHT22;12204;50.600;4.608;2023-01-10T22:21:43;21.10;70.50
22416;DHT22;12204;50.600;4.608;2023-01-10T22:26:49;21.00;70.60
22416;DHT22;12204;50.600;4.608;2023-01-10T22:31:55;21.00;70.70
22416;DHT22;12204;50.600;4.608;2023-01-10T22:36:59;21.00;70.80
22416;DHT22;12204;50.600;4.608;2023-01-10T22:42:04;20.90;70.90
22416;DHT22;12204;50.600;4.608;2023-01-10T22:47:08;21.00;74.40
22416;DHT22;12204;50.600;4.608;2023-01-10T22:52:14;21.20;74.70
22416;DHT22;12204;50.600;4.608;2023-01-10T22:57:19;21.20;74.30
22416;DHT22;12204;50.600;4.608;2023-01-10T23:02:23;21.20;74.10
22416;DHT22;12204;50.600;4.608;2023-01-10T23:07:29;21.30;74.40
22416;DHT22;12204;50.600;4.608;2023-01-10T23:12:35;21.30;74.30
22416;DHT22;12204;50.600;4.608;2023-01-10T23:17:38;21.30;74.20
22416;DHT22;12204;50.600;4.608;2023-01-10T23:22:42;21.30;74.20
22416;DHT22;12204;50.600;4.608;2023-01-10T23:27:47;21.30;74.30
22416;DHT22;12204;50.600;4.608;2023-01-10T23:32:51;21.20;74.30
22416;DHT22;12204;50.600;4.608;2023-01-10T23:37:55;21.20;74.40
22416;DHT22;12204;50.600;4.608;2023-01-10T23:43:00;21.20;74.50
22416;DHT22;12204;50.600;4.608;2023-01-10T23:48:04;21.20;74.50
22416;DHT22;12204;50.600;4.608;2023-01-10T23:53:09;21.20;75.30
22416;DHT22;12204;50.600;4.608;2023-01-10T23:58:14;21.10;74.50
